British Gannet — MGRX9 — position and weather

sailwx.info

Track history (hours):
 
Tides and Currents Weather Stations Pressure Air Temp Water Temp Dewpoint Dewpoint Depression Visibility Wind Speed Wind Dir Waves Ship Positions

British Gannet

Last reported at 2014-Sep-18 00:00 UTC. Time now 2014-Oct-01 18:25 UTC.
Position N 06°12' E 094°24'.
Warning: this ship's position is 13 days out of date.

Length 233 m; draft 8.5 m.

Type: Tanker. MMSI: 232150000.

Wind from 190 at 6 knots

Barometer 1010.1 mb
Air temperature 27.5 ° C
Visibility: greater than 10.8 NM
Dewpoint 24.7 ° C

Date/timePositionNaut miles runAvg speedWind from/ knotsBaromVisibWave heightAir tempDewpointWater temp
2014-Sep-18 00:00N 06°12' E 094°24'61913.0 190 / 61010.110.8 27.524.7
2014-Sep-16 00:29N 01°14' E 103°27'1314.0
2014-Sep-15 23:33N 01°11' E 103°40'1010.4
2014-Sep-15 22:33N 01°11' E 103°50'5 5.4
2014-Sep-15 21:33N 01°15' E 103°54'0 0.0
2014-Sep-15 20:33N 01°15' E 103°54'0 0.1
2014-Sep-15 19:33N 01°15' E 103°54'0 0.0
2014-Sep-15 18:33N 01°15' E 103°54'0 0.0
2014-Sep-15 17:33N 01°15' E 103°54'0 0.0
2014-Sep-15 16:33N 01°15' E 103°54'0 0.0
2014-Sep-15 15:33N 01°15' E 103°54'0 0.0
2014-Sep-15 14:33N 01°15' E 103°54'0 0.0
2014-Sep-15 13:33N 01°15' E 103°54'0 0.0
2014-Sep-15 12:33N 01°15' E 103°54'0 0.0
2014-Sep-15 11:33N 01°15' E 103°54'0 0.0
2014-Sep-15 10:33N 01°15' E 103°54'0 0.1
2014-Sep-15 09:33N 01°15' E 103°54'0 0.0
2014-Sep-15 08:33N 01°15' E 103°54'0 0.1
2014-Sep-15 07:33N 01°15' E 103°54'0 0.1
2014-Sep-15 06:33N 01°15' E 103°54'0 0.1
2014-Sep-15 05:33N 01°15' E 103°54'0 0.0
2014-Sep-15 04:33N 01°15' E 103°54'0 0.1
2014-Sep-15 03:33N 01°15' E 103°54'0 0.0
2014-Sep-15 02:33N 01°15' E 103°54'0 0.1
2014-Sep-15 01:33N 01°15' E 103°54'3 3.4
2014-Sep-15 00:33N 01°15' E 103°58'5 4.9
2014-Sep-14 23:33N 01°12' E 103°54'7 6.5
2014-Sep-14 22:32N 01°09' E 103°48'7 6.7
2014-Sep-14 21:33N 01°05' E 103°43'6 5.7
2014-Sep-14 20:33N 01°03' E 103°38'8 8.3
2014-Sep-14 19:33N 01°07' E 103°30'1311.4
2014-Sep-14 18:23N 01°15' E 103°20'  
2014-Sep-12 00:34N 01°14' E 103°55'1312.5
2014-Sep-11 23:33N 01°16' E 104°07'  
2014-Sep-08 06:00S 10°54' E 115°48'19 6.3 140 / 151015.810.8 0.529.520.526.0
2014-Sep-08 03:00S 10°36' E 115°54'   090 / 151017.510.8 0.528.020.523.9
Track history (hours):
 
Tides and Currents Weather Stations Pressure Air Temp Water Temp Dewpoint Dewpoint Depression Visibility Wind Speed Wind Dir Waves Ship Positions

British Gannet

Last reported at 2014-Sep-18 00:00 UTC. Time now 2014-Oct-01 18:25 UTC.
Position N 06°12' E 094°24'.
Warning: this ship's position is 13 days out of date.

Length 233 m; draft 8.5 m.

Type: Tanker. MMSI: 232150000.

Wind from 190 at 6 knots

Barometer 1010.1 mb
Air temperature 27.5 ° C
Visibility: greater than 10.8 NM
Dewpoint 24.7 ° C

Date/timePositionNaut miles runAvg speedWind from/ knotsBaromVisibWave heightAir tempDewpointWater temp
2014-Sep-18 00:00N 06°12' E 094°24'61913.0 190 / 61010.110.8 27.524.7
2014-Sep-16 00:29N 01°14' E 103°27'1314.0
2014-Sep-15 23:33N 01°11' E 103°40'1010.4
2014-Sep-15 22:33N 01°11' E 103°50'5 5.4
2014-Sep-15 21:33N 01°15' E 103°54'0 0.0
2014-Sep-15 20:33N 01°15' E 103°54'0 0.1
2014-Sep-15 19:33N 01°15' E 103°54'0 0.0
2014-Sep-15 18:33N 01°15' E 103°54'0 0.0
2014-Sep-15 17:33N 01°15' E 103°54'0 0.0
2014-Sep-15 16:33N 01°15' E 103°54'0 0.0
2014-Sep-15 15:33N 01°15' E 103°54'0 0.0
2014-Sep-15 14:33N 01°15' E 103°54'0 0.0
2014-Sep-15 13:33N 01°15' E 103°54'0 0.0
2014-Sep-15 12:33N 01°15' E 103°54'0 0.0
2014-Sep-15 11:33N 01°15' E 103°54'0 0.0
2014-Sep-15 10:33N 01°15' E 103°54'0 0.1
2014-Sep-15 09:33N 01°15' E 103°54'0 0.0
2014-Sep-15 08:33N 01°15' E 103°54'0 0.1
2014-Sep-15 07:33N 01°15' E 103°54'0 0.1
2014-Sep-15 06:33N 01°15' E 103°54'0 0.1
2014-Sep-15 05:33N 01°15' E 103°54'0 0.0
2014-Sep-15 04:33N 01°15' E 103°54'0 0.1
2014-Sep-15 03:33N 01°15' E 103°54'0 0.0
2014-Sep-15 02:33N 01°15' E 103°54'0 0.1
2014-Sep-15 01:33N 01°15' E 103°54'3 3.4
2014-Sep-15 00:33N 01°15' E 103°58'5 4.9
2014-Sep-14 23:33N 01°12' E 103°54'7 6.5
2014-Sep-14 22:32N 01°09' E 103°48'7 6.7
2014-Sep-14 21:33N 01°05' E 103°43'6 5.7
2014-Sep-14 20:33N 01°03' E 103°38'8 8.3
2014-Sep-14 19:33N 01°07' E 103°30'1311.4
2014-Sep-14 18:23N 01°15' E 103°20'  
2014-Sep-12 00:34N 01°14' E 103°55'1312.5
2014-Sep-11 23:33N 01°16' E 104°07'  
2014-Sep-08 06:00S 10°54' E 115°48'19 6.3 140 / 151015.810.8 0.529.520.526.0
2014-Sep-08 03:00S 10°36' E 115°54'   090 / 151017.510.8 0.528.020.523.9

Dump ship's entire track history